Time;durP1;ratioP1;P1;durP2;ratioP2;P2;SDS_P1;SDS_P2;PMS_P1;PMS_P2;Temp;Humidity;BMP_temperature;BMP_pressure;BME280_temperature;BME280_humidity;BME280_pressure;Samples;Min_cycle;Max_cycle;Signal;HPM_P1;HPM_P2
2023/06/30 00:01:04;;;;;;;;;;;;;;;-144.86;100.00;65694.16;5013427;28;19964;-69
2023/06/30 00:03:33;;;;;;;;;;;;;;;-144.86;100.00;65694.16;5021217;28;19926;-69
2023/06/30 00:06:01;;;;;;;;;;;;;;;-144.86;100.00;65694.16;5022831;28;19971;-69
2023/06/30 00:08:29;;;;;;;;;;;;;;;-144.86;100.00;65694.16;5016848;28;20048;-69
2023/06/30 00:10:57;;;;;;;;;;;;;;;-144.86;100.00;65694.16;5010611;28;19965;-69
2023/06/30 00:13:25;;;;;;;;;;;;;;;-144.86;100.00;65694.16;5015087;28;19935;-68
2023/06/30 00:15:54;;;;;;;;;;;;;;;-144.86;100.00;65694.16;5024485;28;19928;-69
2023/06/30 00:18:23;;;;;;;;;;;;;;;-144.86;100.00;65694.16;5011095;28;19925;-69
2023/06/30 00:20:54;;;;;;;;;;;;;;;-144.86;100.00;65694.16;5027395;28;19948;-69
2023/06/30 00:23:22;;;;;;;;;;;;;;;-144.86;100.00;65694.16;5024623;28;19931;-69
2023/06/30 00:25:49;;;;;;;;;;;;;;;-144.86;100.00;65694.16;5022280;28;19929;-69
2023/06/30 00:28:17;;;;;;;;;;;;;;;-144.86;100.00;65694.16;5018216;28;20731;-69
2023/06/30 00:30:45;;;;;;;;;;;;;;;-144.86;100.00;65694.16;5012723;28;19929;-69
2023/06/30 00:33:13;;;;;;;;;;;;;;;-144.86;100.00;65694.16;5012097;28;19925;-69
2023/06/30 00:35:43;;;;;;;;;;;;;;;-144.86;100.00;65694.16;5004779;28;19933;-69
2023/06/30 00:38:11;;;;;;;;;;;;;;;-144.86;100.00;65694.16;5015669;28;19976;-70
2023/06/30 00:40:40;;;;;;;;;;;;;;;-144.86;100.00;65694.16;5017605;28;20144;-69
2023/06/30 00:43:08;;;;;;;;;;;;;;;-144.86;100.00;65694.16;5022192;28;20039;-71
2023/06/30 00:45:36;;;;;;;;;;;;;;;-144.86;100.00;65694.16;5011342;28;19928;-69
2023/06/30 00:48:05;;;;;;;;;;;;;;;-144.86;100.00;65694.16;5003616;28;19971;-68
2023/06/30 00:50:32;;;;;;;;;;;;;;;-144.86;100.00;65694.16;5020471;28;19924;-69
2023/06/30 00:53:01;;;;;;;;;;;;;;;-144.86;100.00;65694.16;5027474;28;19971;-69
2023/06/30 00:55:30;;;;;;;;;;;;;;;-144.86;100.00;65694.16;5023910;28;19980;-69
2023/06/30 00:58:00;;;;;;;;;;;;;;;-144.86;100.00;65694.16;5011392;28;19925;-69
2023/06/30 01:00:27;;;;;;;;;;;;;;;-144.86;100.00;65694.16;5009395;28;19972;-69
2023/06/30 01:03:01;;;;;;;;;;;;;;;-144.86;100.00;65694.16;5012242;28;19940;-71
2023/06/30 01:05:32;;;;;;;;;;;;;;;-144.86;100.00;65694.16;5026290;28;20286;-69
2023/06/30 01:08:03;;;;;;;;;;;;;;;-144.86;100.00;65694.16;5011482;28;19927;-69
2023/06/30 01:10:31;;;;;;;;;;;;;;;-144.86;100.00;65694.16;5027454;28;20363;-69
2023/06/30 01:13:00;;;;;;;;;;;;;;;-144.86;100.00;65694.16;4996363;28;19965;-70
2023/06/30 01:15:28;;;;;;;;;;;;;;;-144.86;100.00;65694.16;4999930;28;19925;-69
2023/06/30 01:17:59;;;;;;;;;;;;;;;-144.86;100.00;65694.16;5008415;28;19983;-69
2023/06/30 01:20:29;;;;;;;;;;;;;;;-144.86;100.00;65694.16;5004664;28;19956;-69
2023/06/30 01:22:59;;;;;;;;;;;;;;;-144.86;100.00;65694.16;5002051;28;20364;-69
2023/06/30 01:25:30;;;;;;;;;;;;;;;-144.86;100.00;65694.16;5008856;28;19972;-69
2023/06/30 01:27:58;;;;;;;;;;;;;;;-144.86;100.00;65694.16;5008083;28;19963;-70
2023/06/30 01:30:29;;;;;;;;;;;;;;;-144.86;100.00;65694.16;5010762;28;19965;-69
2023/06/30 01:32:58;;;;;;;;;;;;;;;-144.86;100.00;65694.16;5010766;28;19925;-69
2023/06/30 01:35:26;;;;;;;;;;;;;;;-144.86;100.00;65694.16;5013823;28;19934;-68
2023/06/30 01:37:54;;;;;;;;;;;;;;;-144.86;100.00;65694.16;5010371;28;19926;-69
2023/06/30 01:40:22;;;;;;;;;;;;;;;-144.86;100.00;65694.16;5001010;28;19936;-69
2023/06/30 01:42:53;;;;;;;;;;;;;;;-144.86;100.00;65694.16;5010955;28;19925;-69
2023/06/30 01:45:21;;;;;;;;;;;;;;;-144.86;100.00;65694.16;5010793;28;19930;-68
2023/06/30 01:47:49;;;;;;;;;;;;;;;-144.86;100.00;65694.16;5009106;28;20447;-68
2023/06/30 01:50:18;;;;;;;;;;;;;;;-144.86;100.00;65694.16;5009846;28;20036;-68
2023/06/30 01:52:46;;;;;;;;;;;;;;;-144.86;100.00;65694.16;5012128;28;19929;-69
2023/06/30 01:55:14;;;;;;;;;;;;;;;-144.86;100.00;65694.16;5005935;28;20311;-69
2023/06/30 01:57:41;;;;;;;;;;;;;;;-144.86;100.00;65694.16;5003889;28;19960;-68
2023/06/30 02:00:11;;;;;;;;;;;;;;;-144.86;100.00;65694.16;5011939;28;20369;-69
2023/06/30 02:02:39;;;;;;;;;;;;;;;-144.86;100.00;65694.16;5005212;28;20298;-68
2023/06/30 02:05:09;;;;;;;;;;;;;;;-144.86;100.00;65694.16;5022847;28;19933;-68
2023/06/30 02:07:37;;;;;;;;;;;;;;;-144.86;100.00;65694.16;5007120;28;19978;-68
2023/06/30 02:10:07;;;;;;;;;;;;;;;-144.86;100.00;65694.16;5005027;28;19969;-68
2023/06/30 02:12:35;;;;;;;;;;;;;;;-144.86;100.00;65694.16;5009518;28;19968;-69
2023/06/30 02:15:04;;;;;;;;;;;;;;;-144.86;100.00;65694.16;5028221;28;19948;-71
2023/06/30 02:17:35;;;;;;;;;;;;;;;-144.86;100.00;65694.16;5031463;28;19928;-68
2023/06/30 02:20:05;;;;;;;;;;;;;;;-144.86;100.00;65694.16;5026441;28;19941;-69
2023/06/30 02:22:33;;;;;;;;;;;;;;;-144.86;100.00;65694.16;5008468;28;19968;-69
2023/06/30 02:25:01;;;;;;;;;;;;;;;-144.86;100.00;65694.16;5015934;28;19929;-69
2023/06/30 02:27:29;;;;;;;;;;;;;;;-144.86;100.00;65694.16;5014674;28;19925;-68
2023/06/30 02:30:04;;;;;;;;;;;;;;;-144.86;100.00;65694.16;5022981;28;19926;-69
2023/06/30 02:32:37;;;;;;;;;;;;;;;-144.86;100.00;65694.16;5024195;28;20290;-69
2023/06/30 02:35:06;;;;;;;;;;;;;;;-144.86;100.00;65694.16;5025762;28;19960;-69
2023/06/30 02:37:34;;;;;;;;;;;;;;;-144.86;100.00;65694.16;5011831;28;19929;-69
2023/06/30 02:40:01;;;;;;;;;;;;;;;-144.86;100.00;65694.16;5019736;28;19968;-69
2023/06/30 02:42:30;;;;;;;;;;;;;;;-144.86;100.00;65694.16;5010835;28;19932;-69
2023/06/30 02:44:57;;;;;;;;;;;;;;;-144.86;100.00;65694.16;5008149;28;20329;-69
2023/06/30 02:47:25;;;;;;;;;;;;;;;-144.86;100.00;65694.16;5028480;28;19988;-68
2023/06/30 02:49:54;;;;;;;;;;;;;;;-144.86;100.00;65694.16;5027695;28;19926;-69
2023/06/30 02:52:22;;;;;;;;;;;;;;;-144.86;100.00;65694.16;5013207;28;19983;-69
2023/06/30 02:54:51;;;;;;;;;;;;;;;-144.86;100.00;65694.16;5012547;28;19925;-69
2023/06/30 02:57:20;;;;;;;;;;;;;;;-144.86;100.00;65694.16;5010054;28;19925;-68
2023/06/30 02:59:47;;;;;;;;;;;;;;;-144.86;100.00;65694.16;5010840;28;19929;-68
2023/06/30 03:02:15;;;;;;;;;;;;;;;-144.86;100.00;65694.16;5010728;28;19972;-69
2023/06/30 03:04:43;;;;;;;;;;;;;;;-144.86;100.00;65694.16;5008996;28;19932;-69
2023/06/30 03:07:13;;;;;;;;;;;;;;;-144.86;100.00;65694.16;5012594;28;19936;-68
2023/06/30 03:09:42;;;;;;;;;;;;;;;-144.86;100.00;65694.16;5006749;28;19932;-69
2023/06/30 03:12:11;;;;;;;;;;;;;;;-144.86;100.00;65694.16;5002442;28;19926;-69
2023/06/30 03:14:39;;;;;;;;;;;;;;;-144.86;100.00;65694.16;4996092;28;19936;-69
2023/06/30 03:17:07;;;;;;;;;;;;;;;-144.86;100.00;65694.16;5010782;28;20367;-69
2023/06/30 03:19:36;;;;;;;;;;;;;;;-144.86;100.00;65694.16;5004592;28;19933;-69
2023/06/30 03:22:04;;;;;;;;;;;;;;;-144.86;100.00;65694.16;5009364;28;19926;-69
2023/06/30 03:24:33;;;;;;;;;;;;;;;-144.86;100.00;65694.16;4993957;28;19926;-69
2023/06/30 03:27:04;;;;;;;;;;;;;;;-144.86;100.00;65694.16;5006730;28;19991;-69
2023/06/30 03:29:32;;;;;;;;;;;;;;;-144.86;100.00;65694.16;5009199;28;19956;-69
2023/06/30 03:32:01;;;;;;;;;;;;;;;-144.86;100.00;65694.16;4990057;28;19925;-69
2023/06/30 03:34:29;;;;;;;;;;;;;;;-144.86;100.00;65694.16;4994815;28;19933;-69
2023/06/30 03:36:57;;;;;;;;;;;;;;;-144.86;100.00;65694.16;5000728;28;19929;-71
2023/06/30 03:39:25;;;;;;;;;;;;;;;-144.86;100.00;65694.16;4994711;28;19929;-69
2023/06/30 03:41:54;;;;;;;;;;;;;;;-144.86;100.00;65694.16;4982745;28;19933;-69
2023/06/30 03:44:22;;;;;;;;;;;;;;;-144.86;100.00;65694.16;5008952;28;20394;-69
2023/06/30 03:46:50;;;;;;;;;;;;;;;-144.86;100.00;65694.16;4987527;28;19930;-69
2023/06/30 03:49:19;;;;;;;;;;;;;;;-144.86;100.00;65694.16;5010221;28;19957;-69
2023/06/30 03:51:47;;;;;;;;;;;;;;;-144.86;100.00;65694.16;4983416;28;19933;-69
2023/06/30 03:54:16;;;;;;;;;;;;;;;-144.86;100.00;65694.16;5002109;28;19937;-69
2023/06/30 03:56:44;;;;;;;;;;;;;;;-144.86;100.00;65694.16;4993740;28;19971;-70
2023/06/30 03:59:13;;;;;;;;;;;;;;;-144.86;100.00;65694.16;4998747;28;19976;-69
2023/06/30 04:01:41;;;;;;;;;;;;;;;-144.86;100.00;65694.16;4990488;28;19929;-69
2023/06/30 04:04:08;;;;;;;;;;;;;;;-144.86;100.00;65694.16;4995531;28;20037;-69
2023/06/30 04:06:39;;;;;;;;;;;;;;;-144.86;100.00;65694.16;5007334;28;19929;-69
2023/06/30 04:09:07;;;;;;;;;;;;;;;-144.86;100.00;65694.16;5005462;28;20401;-69
2023/06/30 04:11:35;;;;;;;;;;;;;;;-144.86;100.00;65694.16;5009124;28;20024;-69
2023/06/30 04:14:03;;;;;;;;;;;;;;;-144.86;100.00;65694.16;5020810;28;19972;-69
2023/06/30 04:16:32;;;;;;;;;;;;;;;-144.86;100.00;65694.16;5006997;28;19955;-69
2023/06/30 04:18:59;;;;;;;;;;;;;;;-144.86;100.00;65694.16;5019457;28;19957;-69
2023/06/30 04:21:27;;;;;;;;;;;;;;;-144.86;100.00;65694.16;5032948;28;19968;-69
2023/06/30 04:23:55;;;;;;;;;;;;;;;-144.86;100.00;65694.16;5021285;28;19925;-69
2023/06/30 04:26:23;;;;;;;;;;;;;;;-144.86;100.00;65694.16;5009362;28;20016;-69
2023/06/30 04:28:51;;;;;;;;;;;;;;;-144.86;100.00;65694.16;5017835;28;19936;-69
2023/06/30 04:31:19;;;;;;;;;;;;;;;-144.86;100.00;65694.16;5021237;28;20339;-69
2023/06/30 04:33:48;;;;;;;;;;;;;;;-144.86;100.00;65694.16;5020819;28;20453;-69
2023/06/30 04:36:17;;;;;;;;;;;;;;;-144.86;100.00;65694.16;5002915;28;20450;-69
2023/06/30 04:38:47;;;;;;;;;;;;;;;-144.86;100.00;65694.16;5023663;28;19925;-69
2023/06/30 04:41:15;;;;;;;;;;;;;;;-144.86;100.00;65694.16;5021351;28;20295;-69
2023/06/30 04:43:43;;;;;;;;;;;;;;;-144.86;100.00;65694.16;5030360;28;19929;-69
2023/06/30 04:46:11;;;;;;;;;;;;;;;-144.86;100.00;65694.16;5024011;28;19925;-68
2023/06/30 04:48:39;;;;;;;;;;;;;;;-144.86;100.00;65694.16;5009773;28;19971;-69
2023/06/30 04:51:08;;;;;;;;;;;;;;;-144.86;100.00;65694.16;5010817;28;20032;-69
2023/06/30 04:53:38;;;;;;;;;;;;;;;-144.86;100.00;65694.16;5024716;28;19929;-69
2023/06/30 04:56:06;;;;;;;;;;;;;;;-144.86;100.00;65694.16;5034611;28;19925;-69
2023/06/30 04:58:34;;;;;;;;;;;;;;;-144.86;100.00;65694.16;5024720;28;19929;-69
2023/06/30 05:01:04;;;;;;;;;;;;;;;-144.86;100.00;65694.16;5005012;28;19929;-69
2023/06/30 05:03:32;;;;;;;;;;;;;;;-144.86;100.00;65694.16;5026065;28;19925;-70
2023/06/30 05:06:00;;;;;;;;;;;;;;;-144.86;100.00;65694.16;4999969;28;19925;-69
2023/06/30 05:08:29;;;;;;;;;;;;;;;-144.86;100.00;65694.16;5020734;28;20382;-69
2023/06/30 05:10:57;;;;;;;;;;;;;;;-144.86;100.00;65694.16;5017789;28;19969;-69
2023/06/30 05:13:26;;;;;;;;;;;;;;;-144.86;100.00;65694.16;5026569;28;19996;-69
2023/06/30 05:15:54;;;;;;;;;;;;;;;-144.86;100.00;65694.16;5029150;28;19929;-69
2023/06/30 05:18:22;;;;;;;;;;;;;;;-144.86;100.00;65694.16;5010508;28;19933;-69
2023/06/30 05:20:49;;;;;;;;;;;;;;;-144.86;100.00;65694.16;5010049;28;20382;-69
2023/06/30 05:23:19;;;;;;;;;;;;;;;-144.86;100.00;65694.16;5026258;28;19926;-69
2023/06/30 05:25:49;;;;;;;;;;;;;;;-144.86;100.00;65694.16;5008695;28;20395;-69
2023/06/30 05:28:16;;;;;;;;;;;;;;;-144.86;100.00;65694.16;5023730;28;20036;-69
2023/06/30 05:30:44;;;;;;;;;;;;;;;-144.86;100.00;65694.16;5020793;28;19932;-69
2023/06/30 05:33:12;;;;;;;;;;;;;;;-144.86;100.00;65694.16;5029155;28;20271;-68
2023/06/30 05:35:40;;;;;;;;;;;;;;;-144.86;100.00;65694.16;5023510;28;19933;-68
2023/06/30 05:38:08;;;;;;;;;;;;;;;-144.86;100.00;65694.16;5020438;28;19968;-69
2023/06/30 05:40:35;;;;;;;;;;;;;;;-144.86;100.00;65694.16;5025860;28;19925;-69
2023/06/30 05:43:05;;;;;;;;;;;;;;;-144.86;100.00;65694.16;5013995;28;19932;-69
2023/06/30 05:45:32;;;;;;;;;;;;;;;-144.86;100.00;65694.16;5024940;28;19925;-69
2023/06/30 05:48:00;;;;;;;;;;;;;;;-144.86;100.00;65694.16;5014006;28;20005;-69
2023/06/30 05:50:28;;;;;;;;;;;;;;;-144.86;100.00;65694.16;5032058;28;19987;-69
2023/06/30 05:52:56;;;;;;;;;;;;;;;-144.86;100.00;65694.16;5018904;28;19972;-69
2023/06/30 05:55:24;;;;;;;;;;;;;;;-144.86;100.00;65694.16;5006390;28;19933;-68
2023/06/30 05:57:52;;;;;;;;;;;;;;;-144.86;100.00;65694.16;5027702;28;19937;-68
2023/06/30 06:00:23;;;;;;;;;;;;;;;-144.86;100.00;65694.16;5010746;28;20365;-69
2023/06/30 06:02:51;;;;;;;;;;;;;;;-144.86;100.00;65694.16;5022221;28;20374;-68
2023/06/30 06:05:19;;;;;;;;;;;;;;;-144.86;100.00;65694.16;5026272;28;19933;-68
2023/06/30 06:07:48;;;;;;;;;;;;;;;-144.86;100.00;65694.16;5023513;28;19980;-69
2023/06/30 06:10:16;;;;;;;;;;;;;;;-144.86;100.00;65694.16;5013636;28;19987;-68
2023/06/30 06:12:44;;;;;;;;;;;;;;;-144.86;100.00;65694.16;5015827;28;19933;-68
2023/06/30 06:15:14;;;;;;;;;;;;;;;-144.86;100.00;65694.16;5001987;28;20132;-68
2023/06/30 06:17:43;;;;;;;;;;;;;;;-144.86;100.00;65694.16;5021776;28;19972;-68
2023/06/30 06:20:11;;;;;;;;;;;;;;;-144.86;100.00;65694.16;5024433;28;19925;-69
2023/06/30 06:22:39;;;;;;;;;;;;;;;-144.86;100.00;65694.16;5030192;28;19964;-69
2023/06/30 06:25:10;;;;;;;;;;;;;;;-144.86;100.00;65694.16;5030590;28;19936;-69
2023/06/30 06:27:38;;;;;;;;;;;;;;;-144.86;100.00;65694.16;5023048;28;20001;-73
2023/06/30 06:30:06;;;;;;;;;;;;;;;-144.86;100.00;65694.16;5012909;28;19926;-69
2023/06/30 06:32:34;;;;;;;;;;;;;;;-144.86;100.00;65694.16;5026495;28;20044;-69
2023/06/30 06:35:03;;;;;;;;;;;;;;;-144.86;100.00;65694.16;5010537;28;19929;-70
2023/06/30 06:37:31;;;;;;;;;;;;;;;-144.86;100.00;65694.16;5012947;28;19961;-69
2023/06/30 06:39:59;;;;;;;;;;;;;;;-144.86;100.00;65694.16;5012943;28;19929;-69
2023/06/30 06:42:29;;;;;;;;;;;;;;;-144.86;100.00;65694.16;5027713;28;20040;-69
2023/06/30 06:44:56;;;;;;;;;;;;;;;-144.86;100.00;65694.16;5029351;28;19955;-69
2023/06/30 06:47:43;;;;;;;;;;;;;;;-144.86;100.00;65694.16;5007471;28;20531;-69
2023/06/30 06:50:12;;;;;;;;;;;;;;;-144.86;100.00;65694.16;5023873;28;20032;-71
2023/06/30 06:52:40;;;;;;;;;;;;;;;-144.86;100.00;65694.16;5025453;28;19932;-69
2023/06/30 06:55:08;;;;;;;;;;;;;;;-144.86;100.00;65694.16;5025367;28;19951;-70
2023/06/30 06:57:36;;;;;;;;;;;;;;;-144.86;100.00;65694.16;5029969;28;19929;-70
2023/06/30 07:00:04;;;;;;;;;;;;;;;-144.86;100.00;65694.16;5022823;28;19925;-70
2023/06/30 07:02:32;;;;;;;;;;;;;;;-144.86;100.00;65694.16;5026606;28;19932;-70
2023/06/30 07:05:00;;;;;;;;;;;;;;;-144.86;100.00;65694.16;5028342;28;20603;-70
2023/06/30 07:07:29;;;;;;;;;;;;;;;-144.86;100.00;65694.16;5025664;28;19925;-69
2023/06/30 07:10:00;;;;;;;;;;;;;;;-144.86;100.00;65694.16;5026985;28;20333;-70
2023/06/30 07:12:28;;;;;;;;;;;;;;;-144.86;100.00;65694.16;5008017;28;19933;-68
2023/06/30 07:14:55;;;;;;;;;;;;;;;-144.86;100.00;65694.16;5008048;28;19929;-68
2023/06/30 07:17:23;;;;;;;;;;;;;;;-144.86;100.00;65694.16;5008291;28;19926;-68
2023/06/30 07:19:51;;;;;;;;;;;;;;;-144.86;100.00;65694.16;5009795;28;19934;-69
2023/06/30 07:22:20;;;;;;;;;;;;;;;-144.86;100.00;65694.16;5006360;28;19936;-68
2023/06/30 07:24:49;;;;;;;;;;;;;;;-144.86;100.00;65694.16;5009127;28;19929;-68
2023/06/30 07:27:17;;;;;;;;;;;;;;;-144.86;100.00;65694.16;5007523;28;19933;-69
2023/06/30 07:29:49;;;;;;;;;;;;;;;-144.86;100.00;65694.16;5007194;28;19932;-68
2023/06/30 07:32:17;;;;;;;;;;;;;;;-144.86;100.00;65694.16;5006863;28;19952;-68
2023/06/30 07:34:45;;;;;;;;;;;;;;;-144.86;100.00;65694.16;5008552;28;19925;-68
2023/06/30 07:37:12;;;;;;;;;;;;;;;-144.86;100.00;65694.16;5007218;28;19952;-68
2023/06/30 07:39:40;;;;;;;;;;;;;;;-144.86;100.00;65694.16;4999635;28;19930;-68
2023/06/30 07:42:10;;;;;;;;;;;;;;;-144.86;100.00;65694.16;5011581;28;20020;-68
2023/06/30 07:44:38;;;;;;;;;;;;;;;-144.86;100.00;65694.16;4997068;28;20267;-68
2023/06/30 07:47:06;;;;;;;;;;;;;;;-144.86;100.00;65694.16;5003873;28;19925;-68
2023/06/30 07:49:33;;;;;;;;;;;;;;;-144.86;100.00;65694.16;5006858;28;19925;-68
2023/06/30 07:52:01;;;;;;;;;;;;;;;-144.86;100.00;65694.16;5000239;28;19979;-68
2023/06/30 07:54:29;;;;;;;;;;;;;;;-144.86;100.00;65694.16;5006349;28;19933;-68
2023/06/30 07:56:57;;;;;;;;;;;;;;;-144.86;100.00;65694.16;5001912;28;20295;-68
2023/06/30 07:59:26;;;;;;;;;;;;;;;-144.86;100.00;65694.16;5007612;28;20020;-68
2023/06/30 08:01:54;;;;;;;;;;;;;;;-144.86;100.00;65694.16;5006732;28;19955;-68
2023/06/30 08:04:24;;;;;;;;;;;;;;;-144.86;100.00;65694.16;5003038;28;19961;-68
2023/06/30 08:06:53;;;;;;;;;;;;;;;-144.86;100.00;65694.16;5000497;28;19930;-68
2023/06/30 08:09:24;;;;;;;;;;;;;;;-144.86;100.00;65694.16;5003266;28;19961;-68
2023/06/30 08:11:52;;;;;;;;;;;;;;;-144.86;100.00;65694.16;5000120;28;19988;-68
2023/06/30 08:14:20;;;;;;;;;;;;;;;-144.86;100.00;65694.16;5000931;28;19936;-68
2023/06/30 08:16:49;;;;;;;;;;;;;;;-144.86;100.00;65694.16;4991293;28;19932;-67
2023/06/30 08:19:18;;;;;;;;;;;;;;;-144.86;100.00;65694.16;5003000;28;20332;-67
2023/06/30 08:22:06;;;;;;;;;;;;;;;-144.86;100.00;65694.16;5008106;28;19932;-67
2023/06/30 08:24:34;;;;;;;;;;;;;;;-144.86;100.00;65694.16;4999345;28;19933;-67
2023/06/30 08:27:02;;;;;;;;;;;;;;;-144.86;100.00;65694.16;5005042;28;20287;-67
2023/06/30 08:29:30;;;;;;;;;;;;;;;-144.86;100.00;65694.16;5001656;28;19933;-67
2023/06/30 08:31:59;;;;;;;;;;;;;;;-144.86;100.00;65694.16;5001127;28;19934;-67
2023/06/30 08:34:27;;;;;;;;;;;;;;;-144.86;100.00;65694.16;4984648;28;19968;-67
2023/06/30 08:36:55;;;;;;;;;;;;;;;-144.86;100.00;65694.16;5005964;28;19964;-67
2023/06/30 08:39:23;;;;;;;;;;;;;;;-144.86;100.00;65694.16;5004828;28;19933;-67
2023/06/30 08:41:52;;;;;;;;;;;;;;;-144.86;100.00;65694.16;5005036;28;20020;-67
2023/06/30 08:44:20;;;;;;;;;;;;;;;-144.86;100.00;65694.16;4989058;28;19929;-67
2023/06/30 08:46:48;;;;;;;;;;;;;;;-144.86;100.00;65694.16;4989076;28;19968;-67
2023/06/30 08:49:17;;;;;;;;;;;;;;;-144.86;100.00;65694.16;5001051;28;19925;-67
2023/06/30 08:51:46;;;;;;;;;;;;;;;-144.86;100.00;65694.16;5012868;28;19999;-68
2023/06/30 08:54:15;;;;;;;;;;;;;;;-144.86;100.00;65694.16;5003575;28;20425;-68
2023/06/30 08:56:43;;;;;;;;;;;;;;;-144.86;100.00;65694.16;5003620;28;19976;-68
2023/06/30 08:59:11;;;;;;;;;;;;;;;-144.86;100.00;65694.16;5003777;28;20314;-69
2023/06/30 09:01:39;;;;;;;;;;;;;;;-144.86;100.00;65694.16;4989194;28;19926;-68
2023/06/30 09:04:07;;;;;;;;;;;;;;;-144.86;100.00;65694.16;4988231;28;19944;-68
2023/06/30 09:06:36;;;;;;;;;;;;;;;-144.86;100.00;65694.16;5010559;28;19925;-68
2023/06/30 09:09:06;;;;;;;;;;;;;;;-144.86;100.00;65694.16;4990028;28;19926;-68
2023/06/30 09:11:35;;;;;;;;;;;;;;;-144.86;100.00;65694.16;4987503;28;19933;-68
2023/06/30 09:14:03;;;;;;;;;;;;;;;-144.86;100.00;65694.16;5007218;28;19944;-68
2023/06/30 09:16:31;;;;;;;;;;;;;;;-144.86;100.00;65694.16;5005826;28;19929;-68
2023/06/30 09:18:59;;;;;;;;;;;;;;;-144.86;100.00;65694.16;5004599;28;19975;-68
2023/06/30 09:21:29;;;;;;;;;;;;;;;-144.86;100.00;65694.16;5004743;28;19925;-68
2023/06/30 09:23:59;;;;;;;;;;;;;;;-144.86;100.00;65694.16;5006151;28;20282;-68
2023/06/30 09:26:27;;;;;;;;;;;;;;;-144.86;100.00;65694.16;5004693;28;19926;-68
2023/06/30 09:28:56;;;;;;;;;;;;;;;-144.86;100.00;65694.16;5004211;28;20040;-68
2023/06/30 09:31:31;;;;;;;;;;;;;;;-144.86;100.00;65694.16;5005189;28;19926;-68
2023/06/30 09:34:09;;;;;;;;;;;;;;;-144.86;100.00;65694.16;5007430;28;20378;-68
2023/06/30 09:36:37;;;;;;;;;;;;;;;-144.86;100.00;65694.16;5005561;28;19936;-67
2023/06/30 09:39:09;;;;;;;;;;;;;;;-144.86;100.00;65694.16;5004712;28;19932;-67
2023/06/30 09:41:37;;;;;;;;;;;;;;;-144.86;100.00;65694.16;5006185;28;19956;-68
2023/06/30 09:44:05;;;;;;;;;;;;;;;-144.86;100.00;65694.16;5005918;28;19987;-69
2023/06/30 09:46:33;;;;;;;;;;;;;;;-144.86;100.00;65694.16;5005095;28;20129;-68
2023/06/30 09:49:04;;;;;;;;;;;;;;;-144.86;100.00;65694.16;5003771;28;19930;-68
2023/06/30 09:51:32;;;;;;;;;;;;;;;-144.86;100.00;65694.16;5005472;28;19925;-68
2023/06/30 09:54:00;;;;;;;;;;;;;;;-144.86;100.00;65694.16;5010706;28;19940;-69
2023/06/30 09:56:29;;;;;;;;;;;;;;;-144.86;100.00;65694.16;4991273;28;19925;-68
2023/06/30 09:58:57;;;;;;;;;;;;;;;-144.86;100.00;65694.16;5008768;28;19933;-67
2023/06/30 10:01:25;;;;;;;;;;;;;;;-144.86;100.00;65694.16;5008485;28;19926;-69
2023/06/30 10:03:54;;;;;;;;;;;;;;;-144.86;100.00;65694.16;5008580;28;20367;-68
2023/06/30 10:06:22;;;;;;;;;;;;;;;-144.86;100.00;65694.16;5005535;28;20422;-68
2023/06/30 10:08:51;;;;;;;;;;;;;;;-144.86;100.00;65694.16;5009189;28;19930;-70
2023/06/30 10:11:19;;;;;;;;;;;;;;;-144.86;100.00;65694.16;5011075;28;20040;-68
2023/06/30 10:13:48;;;;;;;;;;;;;;;-144.86;100.00;65694.16;5027878;28;19979;-69
2023/06/30 10:16:17;;;;;;;;;;;;;;;-144.86;100.00;65694.16;5027946;28;20008;-68
2023/06/30 10:18:46;;;;;;;;;;;;;;;-144.86;100.00;65694.16;5025126;28;19933;-69
2023/06/30 10:21:14;;;;;;;;;;;;;;;-144.86;100.00;65694.16;5027738;28;20030;-69
2023/06/30 10:23:42;;;;;;;;;;;;;;;-144.86;100.00;65694.16;5025367;28;19968;-69
2023/06/30 10:26:11;;;;;;;;;;;;;;;-144.86;100.00;65694.16;5028626;28;19929;-70
2023/06/30 10:28:38;;;;;;;;;;;;;;;-144.86;100.00;65694.16;5008040;28;20380;-69
2023/06/30 10:31:08;;;;;;;;;;;;;;;-144.86;100.00;65694.16;5009776;28;19936;-69
2023/06/30 10:33:36;;;;;;;;;;;;;;;-144.86;100.00;65694.16;5022942;28;19968;-69
2023/06/30 10:36:04;;;;;;;;;;;;;;;-144.86;100.00;65694.16;5024791;28;19986;-69
2023/06/30 10:38:32;;;;;;;;;;;;;;;-144.86;100.00;65694.16;5014452;28;19933;-69
2023/06/30 10:41:16;;;;;;;;;;;;;;;-144.86;100.00;65694.16;5029575;28;19925;-69
2023/06/30 10:44:03;;;;;;;;;;;;;;;-144.86;100.00;65694.16;5032859;28;19935;-68
2023/06/30 10:46:41;;;;;;;;;;;;;;;-144.86;100.00;65694.16;5024261;28;19929;-68
2023/06/30 10:49:10;;;;;;;;;;;;;;;-144.86;100.00;65694.16;5026388;28;19925;-69
2023/06/30 10:51:38;;;;;;;;;;;;;;;-144.86;100.00;65694.16;5037276;28;20012;-68
2023/06/30 10:54:05;;;;;;;;;;;;;;;-144.86;100.00;65694.16;5026266;28;20024;-69
2023/06/30 10:56:34;;;;;;;;;;;;;;;-144.86;100.00;65694.16;5031433;28;19960;-68
2023/06/30 10:59:04;;;;;;;;;;;;;;;-144.86;100.00;65694.16;5033856;28;19979;-68
2023/06/30 11:01:33;;;;;;;;;;;;;;;-144.86;100.00;65694.16;5029660;28;19929;-69
2023/06/30 11:04:14;;;;;;;;;;;;;;;-144.86;100.00;65694.16;5031447;28;19968;-67
2023/06/30 11:06:46;;;;;;;;;;;;;;;-144.86;100.00;65694.16;5036307;28;19929;-68
2023/06/30 11:09:14;;;;;;;;;;;;;;;-144.86;100.00;65694.16;5030088;28;19925;-68
2023/06/30 11:11:48;;;;;;;;;;;;;;;-144.86;100.00;65694.16;5022304;28;20026;-68
2023/06/30 11:14:16;;;;;;;;;;;;;;;-144.86;100.00;65694.16;5031253;28;19929;-68
2023/06/30 11:17:00;;;;;;;;;;;;;;;-144.86;100.00;65694.16;5028979;28;19933;-69
2023/06/30 11:19:29;;;;;;;;;;;;;;;-144.86;100.00;65694.16;5026399;28;19933;-68
2023/06/30 11:22:15;;;;;;;;;;;;;;;-144.86;100.00;65694.16;5028749;28;19925;-69
2023/06/30 11:24:43;;;;;;;;;;;;;;;-144.86;100.00;65694.16;5022328;28;19948;-68
2023/06/30 11:27:10;;;;;;;;;;;;;;;-144.86;100.00;65694.16;5014749;28;19952;-67
2023/06/30 11:29:38;;;;;;;;;;;;;;;-144.86;100.00;65694.16;5031768;28;19933;-67
2023/06/30 11:32:06;;;;;;;;;;;;;;;-144.86;100.00;65694.16;5027610;28;20348;-67
2023/06/30 11:34:36;;;;;;;;;;;;;;;-144.86;100.00;65694.16;5028407;28;19925;-67
2023/06/30 11:37:05;;;;;;;;;;;;;;;-144.86;100.00;65694.16;5032606;28;20419;-67
2023/06/30 11:39:34;;;;;;;;;;;;;;;-144.86;100.00;65694.16;5027053;28;19933;-68
2023/06/30 11:42:02;;;;;;;;;;;;;;;-144.86;100.00;65694.16;5025450;28;20374;-67
2023/06/30 11:44:30;;;;;;;;;;;;;;;-144.86;100.00;65694.16;5027062;28;19971;-66
2023/06/30 11:46:58;;;;;;;;;;;;;;;-144.86;100.00;65694.16;5028533;28;19986;-67
2023/06/30 11:49:26;;;;;;;;;;;;;;;-144.86;100.00;65694.16;5029253;28;19929;-67
2023/06/30 11:51:55;;;;;;;;;;;;;;;-144.86;100.00;65694.16;5026564;28;19931;-68
2023/06/30 11:54:29;;;;;;;;;;;;;;;-144.86;100.00;65694.16;5026348;28;19936;-67
2023/06/30 11:56:58;;;;;;;;;;;;;;;-144.86;100.00;65694.16;5022681;28;19932;-69
2023/06/30 11:59:26;;;;;;;;;;;;;;;-144.86;100.00;65694.16;5028917;28;19991;-67
2023/06/30 12:01:54;;;;;;;;;;;;;;;-144.86;100.00;65694.16;5024254;28;19925;-67
2023/06/30 12:04:33;;;;;;;;;;;;;;;-144.86;100.00;65694.16;5027581;28;19936;-67
2023/06/30 12:07:05;;;;;;;;;;;;;;;-144.86;100.00;65694.16;5024205;28;19941;-65
2023/06/30 12:09:33;;;;;;;;;;;;;;;-144.86;100.00;65694.16;5020326;28;19926;-67
2023/06/30 12:12:01;;;;;;;;;;;;;;;-144.86;100.00;65694.16;5006506;28;19936;-67
2023/06/30 12:14:29;;;;;;;;;;;;;;;-144.86;100.00;65694.16;5008118;28;20023;-65
2023/06/30 12:16:57;;;;;;;;;;;;;;;-144.86;100.00;65694.16;5023715;28;19967;-67
2023/06/30 12:19:25;;;;;;;;;;;;;;;-144.86;100.00;65694.16;5021939;28;19936;-67
2023/06/30 12:21:54;;;;;;;;;;;;;;;-144.86;100.00;65694.16;5013369;28;19925;-67
2023/06/30 12:24:23;;;;;;;;;;;;;;;-144.86;100.00;65694.16;5024225;28;20048;-68
2023/06/30 12:26:51;;;;;;;;;;;;;;;-144.86;100.00;65694.16;5027329;28;19933;-67